createdAt,value
2022-08-02T00:06:39.840Z,100655.47
2022-08-02T00:13:28.637Z,100643.03
2022-08-02T00:20:15.591Z,100631.78
2022-08-02T00:27:03.721Z,100632.63
2022-08-02T00:34:26.439Z,100627.00
2022-08-02T00:40:59.300Z,100625.84
2022-08-02T00:47:44.768Z,100655.22
2022-08-02T00:54:32.991Z,100604.97
2022-08-02T01:01:18.978Z,100660.03
2022-08-02T01:08:06.083Z,100666.03
2022-08-02T01:14:56.431Z,100668.03
2022-08-02T01:22:03.151Z,100668.81
2022-08-02T01:28:59.772Z,100668.41
2022-08-02T01:35:51.283Z,100605.25
2022-08-02T01:42:37.220Z,100662.78
2022-08-02T01:49:28.201Z,100617.72
2022-08-02T01:56:22.100Z,100660.34
2022-08-02T02:03:10.854Z,100658.34
2022-08-02T02:10:03.043Z,100650.69
2022-08-02T02:16:51.836Z,100663.53
2022-08-02T02:24:02.329Z,100659.88
2022-08-02T02:30:54.066Z,100585.84
2022-08-02T02:37:41.204Z,100664.28
2022-08-02T02:44:27.269Z,100660.25
2022-08-02T03:05:05.844Z,100615.31
2022-08-02T03:11:52.177Z,100661.94
2022-08-02T03:18:40.936Z,100571.31
2022-08-02T03:25:29.180Z,100663.84
2022-08-02T03:32:15.107Z,100677.44
2022-08-02T03:39:01.566Z,100668.59
2022-08-02T03:45:52.646Z,100654.16
2022-08-02T03:52:38.584Z,100663.81
2022-08-02T03:59:24.063Z,100662.59
2022-08-02T04:06:12.209Z,100657.78
2022-08-02T04:13:02.136Z,100659.00
2022-08-02T04:19:53.641Z,100661.44
2022-08-02T04:26:44.176Z,100664.25
2022-08-02T04:33:35.409Z,100665.38
2022-08-02T04:40:21.437Z,100679.25
2022-08-02T04:47:10.014Z,100683.06
2022-08-02T04:54:06.166Z,100690.31
2022-08-02T05:00:55.418Z,100701.16
2022-08-02T05:07:43.517Z,100701.16
2022-08-02T05:14:28.984Z,100709.63
2022-08-02T05:21:14.473Z,100713.34
2022-08-02T05:28:08.338Z,100717.41
2022-08-02T05:34:57.111Z,100693.41
2022-08-02T05:41:42.457Z,100705.59
2022-08-02T05:48:32.241Z,100694.72
2022-08-02T05:55:21.597Z,100703.28
2022-08-02T06:02:16.071Z,100721.50
2022-08-02T06:09:13.704Z,100724.78
2022-08-02T06:16:01.142Z,100728.13
2022-08-02T06:22:48.568Z,100730.22
2022-08-02T06:29:40.786Z,100719.00
2022-08-02T06:36:38.325Z,100726.66
2022-08-02T06:43:35.520Z,100731.13
2022-08-02T06:50:27.385Z,100737.56
2022-08-02T06:57:12.869Z,100738.38
2022-08-02T07:03:58.406Z,100739.25
2022-08-02T07:10:49.094Z,100741.66
2022-08-02T07:17:35.468Z,100734.41
2022-08-02T07:24:20.961Z,100723.13
2022-08-02T07:31:09.557Z,100713.44
2022-08-02T07:38:01.804Z,100568.38
2022-08-02T07:44:49.286Z,100725.78
2022-08-02T07:51:37.372Z,100703.09
2022-08-02T07:58:22.847Z,100618.69
2022-08-02T08:05:09.841Z,100701.66
2022-08-02T08:11:57.868Z,100686.72
2022-08-02T08:18:43.524Z,100716.84
2022-08-02T08:25:29.053Z,100705.44
2022-08-02T08:32:18.818Z,100698.00
2022-08-02T08:39:04.664Z,100697.34
2022-08-02T08:45:55.756Z,100700.81
2022-08-02T08:52:52.926Z,100658.09
2022-08-02T08:59:39.181Z,100708.88
2022-08-02T09:06:25.413Z,100705.34
2022-08-02T09:13:38.774Z,100641.34
2022-08-02T09:20:22.912Z,100693.59
2022-08-02T09:27:15.768Z,100692.06
2022-08-02T09:34:04.489Z,100684.44
2022-08-02T09:40:49.917Z,100691.66
2022-08-02T09:47:37.248Z,100688.88
2022-08-02T09:54:30.433Z,100675.28
2022-08-02T10:01:18.029Z,100691.88
2022-08-02T10:08:21.923Z,100679.81
2022-08-02T10:15:11.954Z,100662.59
2022-08-02T10:22:03.816Z,100666.41
2022-08-02T10:28:52.384Z,100650.13
2022-08-02T10:35:42.641Z,100642.81
2022-08-02T10:42:48.078Z,100644.53
2022-08-02T10:49:39.731Z,100629.38
2022-08-02T10:56:52.987Z,100639.78
2022-08-02T11:03:44.220Z,100627.19
2022-08-02T11:10:37.065Z,100619.81
2022-08-02T11:17:25.166Z,100615.47
2022-08-02T11:24:31.338Z,100611.56
2022-08-02T11:31:16.808Z,100618.38
2022-08-02T11:38:17.767Z,100600.50
2022-08-02T11:45:04.023Z,100607.28
2022-08-02T11:52:05.397Z,100595.72
2022-08-02T11:59:14.801Z,100602.91
2022-08-02T12:06:06.426Z,100607.59
2022-08-02T12:12:54.495Z,100604.88
2022-08-02T12:19:43.480Z,100588.59
2022-08-02T12:26:29.034Z,100596.72
2022-08-02T12:33:14.714Z,100589.09
2022-08-02T12:40:06.111Z,100586.81
2022-08-02T12:47:04.167Z,100584.63
2022-08-02T12:53:59.127Z,100585.00
2022-08-02T13:00:56.783Z,100562.69
2022-08-02T13:07:42.464Z,100571.09
2022-08-02T13:14:28.025Z,100565.16
2022-08-02T13:21:40.208Z,100548.91
2022-08-02T13:28:22.713Z,100560.53
2022-08-02T13:35:18.197Z,100478.97
2022-08-02T13:42:07.137Z,100543.34
2022-08-02T13:48:52.741Z,100549.44
2022-08-02T13:55:43.256Z,100537.91
2022-08-02T14:02:31.638Z,100515.69
2022-08-02T14:09:17.439Z,100517.50
2022-08-02T14:16:03.015Z,100468.78
2022-08-02T14:22:51.077Z,100505.88
2022-08-02T14:29:36.855Z,100512.63
2022-08-02T14:36:27.383Z,100498.78
2022-08-02T14:43:36.811Z,100481.25
2022-08-02T14:50:22.562Z,100473.47
2022-08-02T14:57:08.223Z,100478.28
2022-08-02T15:03:56.600Z,100473.75
2022-08-02T15:10:42.393Z,100481.13
2022-08-02T15:17:28.100Z,100469.09
2022-08-02T15:24:16.431Z,100455.66
2022-08-02T15:31:03.400Z,100466.31
2022-08-02T15:37:48.908Z,100470.28
2022-08-02T15:44:36.980Z,100457.22
2022-08-02T15:51:22.652Z,100446.50
2022-08-02T15:58:08.653Z,100429.25
2022-08-02T16:05:14.212Z,100455.41
2022-08-02T16:11:59.903Z,100454.97
2022-08-02T16:18:45.450Z,100450.06
2022-08-02T16:25:35.032Z,100428.06
2022-08-02T16:32:23.129Z,100439.44
2022-08-02T16:39:10.661Z,100434.63
2022-08-02T16:45:58.730Z,100389.63
2022-08-02T16:52:44.285Z,100425.19
2022-08-02T17:06:38.791Z,100409.63
2022-08-02T17:13:34.259Z,100418.94
2022-08-02T17:20:24.499Z,100393.88
2022-08-02T17:27:13.409Z,100406.47
2022-08-02T17:34:01.378Z,100411.25
2022-08-02T17:40:46.877Z,100411.88
2022-08-02T17:47:42.000Z,100408.59
2022-08-02T17:54:28.174Z,100412.47
2022-08-02T18:01:24.162Z,100373.47
2022-08-02T18:08:13.978Z,100403.00
2022-08-02T18:15:00.131Z,100409.63
2022-08-02T18:21:47.185Z,100412.41
2022-08-02T18:28:35.512Z,100394.34
2022-08-02T18:35:21.451Z,100377.25
2022-08-02T18:42:07.345Z,100404.56
2022-08-02T18:48:55.766Z,100401.94
2022-08-02T18:56:03.535Z,100404.94
2022-08-02T19:02:47.074Z,100410.06
2022-08-02T19:09:40.131Z,100397.91
2022-08-02T19:16:27.629Z,100410.34
2022-08-02T19:23:23.389Z,100402.06
2022-08-02T19:30:14.228Z,100403.44
2022-08-02T19:37:00.297Z,100412.22
2022-08-02T19:44:25.529Z,100426.00
2022-08-02T19:51:00.953Z,100412.59
2022-08-02T19:57:47.358Z,100403.28
2022-08-02T20:04:34.074Z,100407.03
2022-08-02T20:11:24.678Z,100416.47
2022-08-02T20:18:10.673Z,100425.56
2022-08-02T20:24:56.174Z,100395.75
2022-08-02T20:31:44.217Z,100406.56
2022-08-02T20:38:29.811Z,100413.47
2022-08-02T20:45:16.621Z,100360.44
2022-08-02T20:52:05.051Z,100372.31
2022-08-02T20:59:16.123Z,100416.06
2022-08-02T21:06:01.737Z,100413.59
2022-08-02T21:12:49.973Z,100415.84
2022-08-02T21:19:35.789Z,100414.19
2022-08-02T21:26:31.059Z,100418.69
2022-08-02T21:33:23.565Z,100412.31
2022-08-02T21:40:11.750Z,100387.47
2022-08-02T21:46:59.759Z,100413.41
2022-08-02T21:54:18.255Z,100391.38
2022-08-02T22:00:54.077Z,100384.63
2022-08-02T22:07:39.853Z,100436.84
2022-08-02T22:14:33.993Z,100435.09
2022-08-02T22:21:19.525Z,100452.53
2022-08-02T22:28:35.595Z,100451.41
2022-08-02T22:35:13.824Z,100444.28
2022-08-02T22:42:05.900Z,100448.94
2022-08-02T22:48:52.719Z,100394.19
2022-08-02T22:55:42.519Z,100448.75
2022-08-02T22:58:49.514Z,100415.47
2022-08-02T23:02:28.057Z,100462.06
2022-08-02T23:09:15.663Z,100457.00
2022-08-02T23:16:16.590Z,100446.25
2022-08-02T23:23:02.029Z,100465.59
2022-08-02T23:29:49.222Z,100424.78
2022-08-02T23:36:37.309Z,100457.28
2022-08-02T23:43:22.829Z,100467.81
2022-08-02T23:50:10.373Z,100388.72
2022-08-02T23:56:59.277Z,100463.34
